sensor_id;sensor_type;location;lat;lon;timestamp;temperature;humidity
4187;DHT22;2107;52.306;10.484;2023-03-07T00:00:45;4.10;99.90
4187;DHT22;2107;52.306;10.484;2023-03-07T00:03:13;4.10;99.90
4187;DHT22;2107;52.306;10.484;2023-03-07T00:05:41;4.10;99.90
4187;DHT22;2107;52.306;10.484;2023-03-07T00:08:09;4.20;99.90
4187;DHT22;2107;52.306;10.484;2023-03-07T00:10:36;4.00;99.90
4187;DHT22;2107;52.306;10.484;2023-03-07T00:13:03;4.10;99.90
4187;DHT22;2107;52.306;10.484;2023-03-07T00:15:30;4.10;99.90
4187;DHT22;2107;52.306;10.484;2023-03-07T00:17:57;4.10;99.90
4187;DHT22;2107;52.306;10.484;2023-03-07T00:20:24;4.10;99.90
4187;DHT22;2107;52.306;10.484;2023-03-07T00:22:51;4.00;99.90
4187;DHT22;2107;52.306;10.484;2023-03-07T00:25:19;4.30;99.90
4187;DHT22;2107;52.306;10.484;2023-03-07T00:27:46;4.20;99.90
4187;DHT22;2107;52.306;10.484;2023-03-07T00:30:13;4.20;99.90
4187;DHT22;2107;52.306;10.484;2023-03-07T00:32:40;4.10;99.90
4187;DHT22;2107;52.306;10.484;2023-03-07T00:35:07;4.10;99.90
4187;DHT22;2107;52.306;10.484;2023-03-07T00:37:34;4.00;99.90
4187;DHT22;2107;52.306;10.484;2023-03-07T00:40:00;3.90;99.90
4187;DHT22;2107;52.306;10.484;2023-03-07T00:42:30;4.00;99.90
4187;DHT22;2107;52.306;10.484;2023-03-07T00:44:57;4.00;99.90
4187;DHT22;2107;52.306;10.484;2023-03-07T00:47:24;3.90;99.90
4187;DHT22;2107;52.306;10.484;2023-03-07T00:49:51;4.00;99.90
4187;DHT22;2107;52.306;10.484;2023-03-07T00:52:18;4.00;99.90
4187;DHT22;2107;52.306;10.484;2023-03-07T00:54:44;4.00;99.90
4187;DHT22;2107;52.306;10.484;2023-03-07T00:57:11;4.00;99.90
4187;DHT22;2107;52.306;10.484;2023-03-07T00:59:39;3.90;99.90
4187;DHT22;2107;52.306;10.484;2023-03-07T01:02:06;3.80;99.90
4187;DHT22;2107;52.306;10.484;2023-03-07T01:04:33;3.90;99.90
4187;DHT22;2107;52.306;10.484;2023-03-07T01:07:00;3.90;99.90
4187;DHT22;2107;52.306;10.484;2023-03-07T01:09:27;3.90;99.90
4187;DHT22;2107;52.306;10.484;2023-03-07T01:11:53;3.90;99.90
4187;DHT22;2107;52.306;10.484;2023-03-07T01:14:20;3.90;99.90
4187;DHT22;2107;52.306;10.484;2023-03-07T01:16:48;3.90;99.90
4187;DHT22;2107;52.306;10.484;2023-03-07T01:19:15;3.90;99.90
4187;DHT22;2107;52.306;10.484;2023-03-07T01:21:42;3.80;99.90
4187;DHT22;2107;52.306;10.484;2023-03-07T01:24:12;3.80;99.90
4187;DHT22;2107;52.306;10.484;2023-03-07T01:26:39;3.80;99.90
4187;DHT22;2107;52.306;10.484;2023-03-07T01:29:06;3.80;99.90
4187;DHT22;2107;52.306;10.484;2023-03-07T01:31:34;3.70;99.90
4187;DHT22;2107;52.306;10.484;2023-03-07T01:34:02;3.50;99.90
4187;DHT22;2107;52.306;10.484;2023-03-07T01:36:31;3.50;99.90
4187;DHT22;2107;52.306;10.484;2023-03-07T01:38:59;3.50;99.90
4187;DHT22;2107;52.306;10.484;2023-03-07T01:41:27;3.50;99.90
4187;DHT22;2107;52.306;10.484;2023-03-07T01:43:57;3.40;99.90
4187;DHT22;2107;52.306;10.484;2023-03-07T01:46:29;3.30;99.90
4187;DHT22;2107;52.306;10.484;2023-03-07T01:49:01;3.20;99.90
4187;DHT22;2107;52.306;10.484;2023-03-07T01:51:29;3.20;99.90
4187;DHT22;2107;52.306;10.484;2023-03-07T01:53:58;3.30;99.90
4187;DHT22;2107;52.306;10.484;2023-03-07T01:56:26;3.30;99.90
4187;DHT22;2107;52.306;10.484;2023-03-07T01:58:54;3.30;99.90
4187;DHT22;2107;52.306;10.484;2023-03-07T02:01:22;3.40;99.90
4187;DHT22;2107;52.306;10.484;2023-03-07T02:03:52;3.30;99.90
4187;DHT22;2107;52.306;10.484;2023-03-07T02:06:22;3.30;99.90
4187;DHT22;2107;52.306;10.484;2023-03-07T02:08:52;3.20;99.90
4187;DHT22;2107;52.306;10.484;2023-03-07T02:11:21;3.20;99.90
4187;DHT22;2107;52.306;10.484;2023-03-07T02:13:48;3.20;99.90
4187;DHT22;2107;52.306;10.484;2023-03-07T02:16:14;3.20;99.90
4187;DHT22;2107;52.306;10.484;2023-03-07T02:18:44;3.00;99.90
4187;DHT22;2107;52.306;10.484;2023-03-07T02:21:18;3.00;99.90
4187;DHT22;2107;52.306;10.484;2023-03-07T02:23:52;2.90;99.90
4187;DHT22;2107;52.306;10.484;2023-03-07T02:26:24;3.00;99.90
4187;DHT22;2107;52.306;10.484;2023-03-07T02:28:57;2.90;99.90
4187;DHT22;2107;52.306;10.484;2023-03-07T02:31:24;2.80;99.90
4187;DHT22;2107;52.306;10.484;2023-03-07T02:33:51;2.80;99.90
4187;DHT22;2107;52.306;10.484;2023-03-07T02:36:21;2.80;99.90
4187;DHT22;2107;52.306;10.484;2023-03-07T02:38:50;2.80;99.90
4187;DHT22;2107;52.306;10.484;2023-03-07T02:41:20;2.70;99.90
4187;DHT22;2107;52.306;10.484;2023-03-07T02:43:47;2.80;99.90
4187;DHT22;2107;52.306;10.484;2023-03-07T02:46:16;2.80;99.90
4187;DHT22;2107;52.306;10.484;2023-03-07T02:48:43;2.70;99.90
4187;DHT22;2107;52.306;10.484;2023-03-07T02:51:09;2.70;99.90
4187;DHT22;2107;52.306;10.484;2023-03-07T02:53:37;2.60;99.90
4187;DHT22;2107;52.306;10.484;2023-03-07T02:56:04;2.60;99.90
4187;DHT22;2107;52.306;10.484;2023-03-07T02:58:31;2.50;99.90
4187;DHT22;2107;52.306;10.484;2023-03-07T03:00:59;2.50;99.90
4187;DHT22;2107;52.306;10.484;2023-03-07T03:03:27;2.50;99.90
4187;DHT22;2107;52.306;10.484;2023-03-07T03:05:54;2.50;99.90
4187;DHT22;2107;52.306;10.484;2023-03-07T03:08:20;2.40;99.90
4187;DHT22;2107;52.306;10.484;2023-03-07T03:10:51;2.30;99.90
4187;DHT22;2107;52.306;10.484;2023-03-07T03:13:19;2.20;99.90
4187;DHT22;2107;52.306;10.484;2023-03-07T03:15:46;2.30;99.90
4187;DHT22;2107;52.306;10.484;2023-03-07T03:18:13;4.50;99.90
4187;DHT22;2107;52.306;10.484;2023-03-07T03:20:41;3.50;99.90
4187;DHT22;2107;52.306;10.484;2023-03-07T03:23:08;4.10;99.90
4187;DHT22;2107;52.306;10.484;2023-03-07T03:25:35;4.10;99.90
4187;DHT22;2107;52.306;10.484;2023-03-07T03:28:02;3.90;99.90
4187;DHT22;2107;52.306;10.484;2023-03-07T03:30:29;4.20;99.90
4187;DHT22;2107;52.306;10.484;2023-03-07T03:33:00;4.30;99.90
4187;DHT22;2107;52.306;10.484;2023-03-07T03:35:27;4.30;99.90
4187;DHT22;2107;52.306;10.484;2023-03-07T03:37:55;4.10;99.90
4187;DHT22;2107;52.306;10.484;2023-03-07T03:40:22;4.00;99.90
4187;DHT22;2107;52.306;10.484;2023-03-07T03:42:49;3.90;99.90
4187;DHT22;2107;52.306;10.484;2023-03-07T03:45:16;4.00;99.90
4187;DHT22;2107;52.306;10.484;2023-03-07T03:47:44;4.00;99.90
4187;DHT22;2107;52.306;10.484;2023-03-07T03:50:13;4.70;99.90
4187;DHT22;2107;52.306;10.484;2023-03-07T03:52:39;4.00;99.90
4187;DHT22;2107;52.306;10.484;2023-03-07T03:55:10;3.40;99.90
4187;DHT22;2107;52.306;10.484;2023-03-07T03:57:37;4.10;99.90
4187;DHT22;2107;52.306;10.484;2023-03-07T04:00:05;4.50;99.90
4187;DHT22;2107;52.306;10.484;2023-03-07T04:02:33;4.10;99.90
4187;DHT22;2107;52.306;10.484;2023-03-07T04:05:00;3.90;99.90
4187;DHT22;2107;52.306;10.484;2023-03-07T04:07:27;3.80;99.90
4187;DHT22;2107;52.306;10.484;2023-03-07T04:09:54;3.80;99.90
4187;DHT22;2107;52.306;10.484;2023-03-07T04:12:22;3.90;99.90
4187;DHT22;2107;52.306;10.484;2023-03-07T04:14:49;3.80;99.90
4187;DHT22;2107;52.306;10.484;2023-03-07T04:17:16;2.40;99.90
4187;DHT22;2107;52.306;10.484;2023-03-07T04:19:43;2.30;99.90
4187;DHT22;2107;52.306;10.484;2023-03-07T04:22:10;2.30;99.90
4187;DHT22;2107;52.306;10.484;2023-03-07T04:24:36;2.40;99.90
4187;DHT22;2107;52.306;10.484;2023-03-07T04:27:03;5.20;99.90
4187;DHT22;2107;52.306;10.484;2023-03-07T04:29:33;4.70;99.90
4187;DHT22;2107;52.306;10.484;2023-03-07T04:32:00;5.20;99.90
4187;DHT22;2107;52.306;10.484;2023-03-07T04:34:26;5.20;99.90
4187;DHT22;2107;52.306;10.484;2023-03-07T04:36:53;5.00;99.90
4187;DHT22;2107;52.306;10.484;2023-03-07T04:39:20;4.00;99.90
4187;DHT22;2107;52.306;10.484;2023-03-07T04:41:47;4.40;99.90
4187;DHT22;2107;52.306;10.484;2023-03-07T04:44:14;4.20;99.90
4187;DHT22;2107;52.306;10.484;2023-03-07T04:46:43;4.10;99.90
4187;DHT22;2107;52.306;10.484;2023-03-07T04:49:09;4.10;99.90
4187;DHT22;2107;52.306;10.484;2023-03-07T04:51:36;4.00;99.90
4187;DHT22;2107;52.306;10.484;2023-03-07T04:54:03;3.50;99.90
4187;DHT22;2107;52.306;10.484;2023-03-07T04:56:30;3.20;99.90
4187;DHT22;2107;52.306;10.484;2023-03-07T04:58:57;3.30;99.90
4187;DHT22;2107;52.306;10.484;2023-03-07T05:01:24;3.30;99.90
4187;DHT22;2107;52.306;10.484;2023-03-07T05:03:52;3.40;99.90
4187;DHT22;2107;52.306;10.484;2023-03-07T05:06:19;3.40;99.90
4187;DHT22;2107;52.306;10.484;2023-03-07T05:08:46;3.40;99.90
4187;DHT22;2107;52.306;10.484;2023-03-07T05:11:13;3.30;99.90
4187;DHT22;2107;52.306;10.484;2023-03-07T05:13:40;3.40;99.90
4187;DHT22;2107;52.306;10.484;2023-03-07T05:16:07;3.50;99.90
4187;DHT22;2107;52.306;10.484;2023-03-07T05:18:34;2.90;99.90
4187;DHT22;2107;52.306;10.484;2023-03-07T05:21:02;3.00;99.90
4187;DHT22;2107;52.306;10.484;2023-03-07T05:23:29;3.10;99.90
4187;DHT22;2107;52.306;10.484;2023-03-07T05:25:56;3.00;99.90
4187;DHT22;2107;52.306;10.484;2023-03-07T05:28:22;3.00;99.90
4187;DHT22;2107;52.306;10.484;2023-03-07T05:30:49;3.00;99.90
4187;DHT22;2107;52.306;10.484;2023-03-07T05:33:17;2.90;99.90
4187;DHT22;2107;52.306;10.484;2023-03-07T05:35:44;3.00;99.90
4187;DHT22;2107;52.306;10.484;2023-03-07T05:38:14;3.10;99.90
4187;DHT22;2107;52.306;10.484;2023-03-07T05:40:40;3.10;99.90
4187;DHT22;2107;52.306;10.484;2023-03-07T05:43:07;3.00;99.90
4187;DHT22;2107;52.306;10.484;2023-03-07T05:45:34;3.20;99.90
4187;DHT22;2107;52.306;10.484;2023-03-07T05:48:01;3.20;99.90
4187;DHT22;2107;52.306;10.484;2023-03-07T05:50:28;3.20;99.90
4187;DHT22;2107;52.306;10.484;2023-03-07T05:52:55;3.40;99.90
4187;DHT22;2107;52.306;10.484;2023-03-07T05:55:23;2.90;99.90
4187;DHT22;2107;52.306;10.484;2023-03-07T05:57:50;2.90;99.90
4187;DHT22;2107;52.306;10.484;2023-03-07T06:00:18;2.90;99.90
4187;DHT22;2107;52.306;10.484;2023-03-07T06:02:45;2.80;99.90
4187;DHT22;2107;52.306;10.484;2023-03-07T06:05:12;2.80;99.90
4187;DHT22;2107;52.306;10.484;2023-03-07T06:07:39;3.00;99.90
4187;DHT22;2107;52.306;10.484;2023-03-07T06:10:06;2.90;99.90
4187;DHT22;2107;52.306;10.484;2023-03-07T06:12:35;2.90;99.90
4187;DHT22;2107;52.306;10.484;2023-03-07T06:15:02;2.80;99.90
4187;DHT22;2107;52.306;10.484;2023-03-07T06:17:29;2.90;99.90
4187;DHT22;2107;52.306;10.484;2023-03-07T06:19:56;2.80;99.90
4187;DHT22;2107;52.306;10.484;2023-03-07T06:22:23;2.90;99.90
4187;DHT22;2107;52.306;10.484;2023-03-07T06:24:50;2.80;99.90
4187;DHT22;2107;52.306;10.484;2023-03-07T06:27:16;2.60;99.90
4187;DHT22;2107;52.306;10.484;2023-03-07T06:29:45;2.50;99.90
4187;DHT22;2107;52.306;10.484;2023-03-07T06:32:12;2.50;99.90
4187;DHT22;2107;52.306;10.484;2023-03-07T06:34:38;2.40;99.90
4187;DHT22;2107;52.306;10.484;2023-03-07T06:37:05;2.30;99.90
4187;DHT22;2107;52.306;10.484;2023-03-07T06:39:32;2.30;99.90
4187;DHT22;2107;52.306;10.484;2023-03-07T06:41:59;2.10;99.90
4187;DHT22;2107;52.306;10.484;2023-03-07T06:44:26;2.10;99.90
4187;DHT22;2107;52.306;10.484;2023-03-07T06:46:54;2.10;99.90
4187;DHT22;2107;52.306;10.484;2023-03-07T06:49:21;2.10;99.90
4187;DHT22;2107;52.306;10.484;2023-03-07T06:51:48;2.10;99.90
4187;DHT22;2107;52.306;10.484;2023-03-07T06:54:15;2.10;99.90
4187;DHT22;2107;52.306;10.484;2023-03-07T06:56:41;2.10;99.90
4187;DHT22;2107;52.306;10.484;2023-03-07T06:59:08;2.10;99.90
4187;DHT22;2107;52.306;10.484;2023-03-07T07:01:36;2.20;99.90
4187;DHT22;2107;52.306;10.484;2023-03-07T07:04:04;2.20;99.90
4187;DHT22;2107;52.306;10.484;2023-03-07T07:06:31;1.80;99.90
4187;DHT22;2107;52.306;10.484;2023-03-07T07:08:58;1.90;99.90
4187;DHT22;2107;52.306;10.484;2023-03-07T07:11:25;1.90;99.90
4187;DHT22;2107;52.306;10.484;2023-03-07T07:13:53;1.90;99.90
4187;DHT22;2107;52.306;10.484;2023-03-07T07:16:19;1.90;99.90
4187;DHT22;2107;52.306;10.484;2023-03-07T07:18:48;2.00;99.90
4187;DHT22;2107;52.306;10.484;2023-03-07T07:21:17;2.00;99.90
4187;DHT22;2107;52.306;10.484;2023-03-07T07:23:44;2.10;99.90
4187;DHT22;2107;52.306;10.484;2023-03-07T07:26:11;2.10;99.90
4187;DHT22;2107;52.306;10.484;2023-03-07T07:28:38;2.10;99.90
4187;DHT22;2107;52.306;10.484;2023-03-07T07:31:05;2.10;99.90
4187;DHT22;2107;52.306;10.484;2023-03-07T07:33:31;2.20;99.90
4187;DHT22;2107;52.306;10.484;2023-03-07T07:35:58;2.20;99.90
4187;DHT22;2107;52.306;10.484;2023-03-07T07:38:26;2.20;99.90
4187;DHT22;2107;52.306;10.484;2023-03-07T07:40:54;2.30;99.90
4187;DHT22;2107;52.306;10.484;2023-03-07T07:43:21;2.40;99.90
4187;DHT22;2107;52.306;10.484;2023-03-07T07:45:48;2.40;99.90
4187;DHT22;2107;52.306;10.484;2023-03-07T07:48:15;2.50;99.90
4187;DHT22;2107;52.306;10.484;2023-03-07T07:50:42;2.50;99.90
4187;DHT22;2107;52.306;10.484;2023-03-07T07:53:09;2.50;99.90
4187;DHT22;2107;52.306;10.484;2023-03-07T07:55:37;2.60;99.90
4187;DHT22;2107;52.306;10.484;2023-03-07T07:58:04;2.50;99.90
4187;DHT22;2107;52.306;10.484;2023-03-07T08:00:31;2.60;99.90
4187;DHT22;2107;52.306;10.484;2023-03-07T08:02:58;2.60;99.90
4187;DHT22;2107;52.306;10.484;2023-03-07T08:05:25;2.60;99.90
4187;DHT22;2107;52.306;10.484;2023-03-07T08:07:52;2.60;99.90
4187;DHT22;2107;52.306;10.484;2023-03-07T08:10:21;2.60;99.90
4187;DHT22;2107;52.306;10.484;2023-03-07T08:12:49;2.60;99.90
4187;DHT22;2107;52.306;10.484;2023-03-07T08:15:17;2.50;99.90
4187;DHT22;2107;52.306;10.484;2023-03-07T08:17:46;2.50;99.90
4187;DHT22;2107;52.306;10.484;2023-03-07T08:20:13;2.50;99.90
4187;DHT22;2107;52.306;10.484;2023-03-07T08:22:39;2.60;99.90
4187;DHT22;2107;52.306;10.484;2023-03-07T08:25:15;2.70;99.90
4187;DHT22;2107;52.306;10.484;2023-03-07T08:27:43;2.60;99.90
4187;DHT22;2107;52.306;10.484;2023-03-07T08:30:12;2.70;99.90
4187;DHT22;2107;52.306;10.484;2023-03-07T08:32:39;2.70;99.90
4187;DHT22;2107;52.306;10.484;2023-03-07T08:35:07;2.80;99.90
4187;DHT22;2107;52.306;10.484;2023-03-07T08:37:34;2.80;99.90
4187;DHT22;2107;52.306;10.484;2023-03-07T08:40:02;2.80;99.90
4187;DHT22;2107;52.306;10.484;2023-03-07T08:42:29;2.60;99.90
4187;DHT22;2107;52.306;10.484;2023-03-07T08:44:56;2.70;99.90
4187;DHT22;2107;52.306;10.484;2023-03-07T08:47:24;2.60;99.90
4187;DHT22;2107;52.306;10.484;2023-03-07T08:49:51;2.60;99.90
4187;DHT22;2107;52.306;10.484;2023-03-07T08:52:18;2.60;99.90
4187;DHT22;2107;52.306;10.484;2023-03-07T08:54:44;2.60;99.90
4187;DHT22;2107;52.306;10.484;2023-03-07T08:57:11;2.50;99.90
4187;DHT22;2107;52.306;10.484;2023-03-07T08:59:38;2.60;99.90
4187;DHT22;2107;52.306;10.484;2023-03-07T09:02:05;2.60;99.90
4187;DHT22;2107;52.306;10.484;2023-03-07T09:04:33;2.50;99.90
4187;DHT22;2107;52.306;10.484;2023-03-07T09:07:00;2.50;99.90
4187;DHT22;2107;52.306;10.484;2023-03-07T09:09:27;2.40;99.90
4187;DHT22;2107;52.306;10.484;2023-03-07T09:11:54;2.40;99.90
4187;DHT22;2107;52.306;10.484;2023-03-07T09:14:21;2.40;99.90
4187;DHT22;2107;52.306;10.484;2023-03-07T09:16:48;2.30;99.90
4187;DHT22;2107;52.306;10.484;2023-03-07T09:19:15;2.40;99.90
4187;DHT22;2107;52.306;10.484;2023-03-07T09:21:43;2.50;99.90
4187;DHT22;2107;52.306;10.484;2023-03-07T09:24:10;2.60;99.90
4187;DHT22;2107;52.306;10.484;2023-03-07T09:26:36;2.60;99.90
4187;DHT22;2107;52.306;10.484;2023-03-07T09:29:03;2.70;99.90
4187;DHT22;2107;52.306;10.484;2023-03-07T09:31:30;2.70;99.90
4187;DHT22;2107;52.306;10.484;2023-03-07T09:33:57;2.80;99.90
4187;DHT22;2107;52.306;10.484;2023-03-07T09:36:24;3.00;99.90
4187;DHT22;2107;52.306;10.484;2023-03-07T09:38:53;3.20;99.90
4187;DHT22;2107;52.306;10.484;2023-03-07T09:41:37;3.30;99.90
4187;DHT22;2107;52.306;10.484;2023-03-07T09:44:12;3.50;99.90
4187;DHT22;2107;52.306;10.484;2023-03-07T09:46:48;3.80;99.90
4187;DHT22;2107;52.306;10.484;2023-03-07T09:49:17;3.90;99.90
4187;DHT22;2107;52.306;10.484;2023-03-07T09:51:45;4.20;99.90
4187;DHT22;2107;52.306;10.484;2023-03-07T09:54:18;4.20;99.90
4187;DHT22;2107;52.306;10.484;2023-03-07T09:56:47;4.30;99.90
4187;DHT22;2107;52.306;10.484;2023-03-07T09:59:18;4.10;99.90
4187;DHT22;2107;52.306;10.484;2023-03-07T10:01:49;3.80;99.90
4187;DHT22;2107;52.306;10.484;2023-03-07T10:04:21;3.80;99.90
4187;DHT22;2107;52.306;10.484;2023-03-07T10:06:53;3.90;99.90
4187;DHT22;2107;52.306;10.484;2023-03-07T10:09:22;3.70;99.90
4187;DHT22;2107;52.306;10.484;2023-03-07T10:12:04;3.70;99.90
4187;DHT22;2107;52.306;10.484;2023-03-07T10:14:45;3.80;99.90
4187;DHT22;2107;52.306;10.484;2023-03-07T10:17:21;3.60;99.90
4187;DHT22;2107;52.306;10.484;2023-03-07T10:19:51;3.50;99.90
4187;DHT22;2107;52.306;10.484;2023-03-07T10:22:23;3.50;99.90
4187;DHT22;2107;52.306;10.484;2023-03-07T10:25:10;3.50;99.90
4187;DHT22;2107;52.306;10.484;2023-03-07T10:27:39;3.20;99.90
4187;DHT22;2107;52.306;10.484;2023-03-07T10:30:13;3.10;99.90
4187;DHT22;2107;52.306;10.484;2023-03-07T10:32:43;2.80;99.90
4187;DHT22;2107;52.306;10.484;2023-03-07T10:35:17;2.70;99.90
4187;DHT22;2107;52.306;10.484;2023-03-07T10:37:48;2.60;99.90
4187;DHT22;2107;52.306;10.484;2023-03-07T10:40:23;2.50;99.90
4187;DHT22;2107;52.306;10.484;2023-03-07T10:42:55;2.30;99.90
4187;DHT22;2107;52.306;10.484;2023-03-07T10:45:22;2.30;99.90
4187;DHT22;2107;52.306;10.484;2023-03-07T10:47:49;2.30;99.90
4187;DHT22;2107;52.306;10.484;2023-03-07T10:50:27;2.20;99.90
4187;DHT22;2107;52.306;10.484;2023-03-07T10:52:59;2.20;99.90
4187;DHT22;2107;52.306;10.484;2023-03-07T10:55:36;2.20;99.90
4187;DHT22;2107;52.306;10.484;2023-03-07T10:58:26;2.30;99.90
4187;DHT22;2107;52.306;10.484;2023-03-07T11:01:00;2.20;99.90
4187;DHT22;2107;52.306;10.484;2023-03-07T11:03:32;2.20;99.90
4187;DHT22;2107;52.306;10.484;2023-03-07T11:06:04;2.20;99.90
4187;DHT22;2107;52.306;10.484;2023-03-07T11:08:33;2.10;99.90
4187;DHT22;2107;52.306;10.484;2023-03-07T11:11:03;2.10;99.90
4187;DHT22;2107;52.306;10.484;2023-03-07T11:13:30;1.90;99.90
4187;DHT22;2107;52.306;10.484;2023-03-07T11:16:13;1.90;99.90
4187;DHT22;2107;52.306;10.484;2023-03-07T11:18:46;1.80;99.90
4187;DHT22;2107;52.306;10.484;2023-03-07T11:21:30;1.70;99.90
4187;DHT22;2107;52.306;10.484;2023-03-07T11:24:05;1.70;99.90
4187;DHT22;2107;52.306;10.484;2023-03-07T11:26:45;1.80;99.90
4187;DHT22;2107;52.306;10.484;2023-03-07T11:29:17;2.00;99.90
4187;DHT22;2107;52.306;10.484;2023-03-07T11:32:10;2.00;99.90
4187;DHT22;2107;52.306;10.484;2023-03-07T11:34:45;2.00;99.90
4187;DHT22;2107;52.306;10.484;2023-03-07T11:37:30;2.20;99.90
4187;DHT22;2107;52.306;10.484;2023-03-07T11:43:15;2.30;99.90
4187;DHT22;2107;52.306;10.484;2023-03-07T11:46:11;2.50;99.90
4187;DHT22;2107;52.306;10.484;2023-03-07T11:48:53;2.40;99.90
4187;DHT22;2107;52.306;10.484;2023-03-07T11:51:46;2.50;99.90
4187;DHT22;2107;52.306;10.484;2023-03-07T11:54:20;2.50;99.90
4187;DHT22;2107;52.306;10.484;2023-03-07T11:56:56;2.60;99.90
4187;DHT22;2107;52.306;10.484;2023-03-07T11:59:51;2.70;99.90
4187;DHT22;2107;52.306;10.484;2023-03-07T12:05:42;2.60;99.90
4187;DHT22;2107;52.306;10.484;2023-03-07T12:08:27;2.40;99.90
4187;DHT22;2107;52.306;10.484;2023-03-07T12:11:08;2.40;99.90
4187;DHT22;2107;52.306;10.484;2023-03-07T12:13:45;2.30;99.90
4187;DHT22;2107;52.306;10.484;2023-03-07T12:16:23;2.40;99.90
4187;DHT22;2107;52.306;10.484;2023-03-07T12:19:12;2.40;99.90
4187;DHT22;2107;52.306;10.484;2023-03-07T12:21:56;2.40;99.90
4187;DHT22;2107;52.306;10.484;2023-03-07T12:24:28;2.30;99.90
4187;DHT22;2107;52.306;10.484;2023-03-07T12:27:00;2.50;99.90
4187;DHT22;2107;52.306;10.484;2023-03-07T12:29:33;2.50;99.90
4187;DHT22;2107;52.306;10.484;2023-03-07T12:32:07;2.70;99.90
4187;DHT22;2107;52.306;10.484;2023-03-07T12:34:38;2.60;99.90
4187;DHT22;2107;52.306;10.484;2023-03-07T12:37:10;2.70;99.90
4187;DHT22;2107;52.306;10.484;2023-03-07T12:39:46;2.70;99.90
4187;DHT22;2107;52.306;10.484;2023-03-07T12:42:22;2.80;99.90
4187;DHT22;2107;52.306;10.484;2023-03-07T12:44:54;2.80;99.90
4187;DHT22;2107;52.306;10.484;2023-03-07T12:47:28;2.80;99.90
4187;DHT22;2107;52.306;10.484;2023-03-07T12:50:00;2.90;99.90
4187;DHT22;2107;52.306;10.484;2023-03-07T12:52:37;2.90;99.90
4187;DHT22;2107;52.306;10.484;2023-03-07T12:55:13;2.70;99.90
4187;DHT22;2107;52.306;10.484;2023-03-07T12:57:45;2.60;99.90
4187;DHT22;2107;52.306;10.484;2023-03-07T13:00:18;2.60;99.90
4187;DHT22;2107;52.306;10.484;2023-03-07T13:02:55;2.60;99.90
4187;DHT22;2107;52.306;10.484;2023-03-07T13:05:24;2.60;99.90
4187;DHT22;2107;52.306;10.484;2023-03-07T13:07:52;2.70;99.90
4187;DHT22;2107;52.306;10.484;2023-03-07T13:10:22;2.50;99.90
4187;DHT22;2107;52.306;10.484;2023-03-07T13:12:50;2.70;99.90
4187;DHT22;2107;52.306;10.484;2023-03-07T13:18:30;2.70;99.90
4187;DHT22;2107;52.306;10.484;2023-03-07T13:21:12;2.70;99.90
4187;DHT22;2107;52.306;10.484;2023-03-07T13:23:40;2.70;99.90
4187;DHT22;2107;52.306;10.484;2023-03-07T13:26:13;2.70;99.90
4187;DHT22;2107;52.306;10.484;2023-03-07T13:28:49;2.70;99.90
4187;DHT22;2107;52.306;10.484;2023-03-07T13:31:37;2.90;99.90
4187;DHT22;2107;52.306;10.484;2023-03-07T13:37:54;3.00;99.90
4187;DHT22;2107;52.306;10.484;2023-03-07T13:40:27;2.80;99.90
4187;DHT22;2107;52.306;10.484;2023-03-07T13:42:55;2.90;99.90
4187;DHT22;2107;52.306;10.484;2023-03-07T13:45:47;2.90;99.90
4187;DHT22;2107;52.306;10.484;2023-03-07T13:51:14;3.00;99.90
4187;DHT22;2107;52.306;10.484;2023-03-07T13:53:44;2.90;99.90
4187;DHT22;2107;52.306;10.484;2023-03-07T13:56:19;3.00;99.90
4187;DHT22;2107;52.306;10.484;2023-03-07T13:58:55;2.80;99.90
4187;DHT22;2107;52.306;10.484;2023-03-07T14:01:26;2.90;99.90
4187;DHT22;2107;52.306;10.484;2023-03-07T14:03:58;2.90;99.90
4187;DHT22;2107;52.306;10.484;2023-03-07T14:06:32;3.10;99.90
4187;DHT22;2107;52.306;10.484;2023-03-07T14:09:03;3.20;99.90
4187;DHT22;2107;52.306;10.484;2023-03-07T14:11:38;3.00;99.90
4187;DHT22;2107;52.306;10.484;2023-03-07T14:14:21;3.10;99.90
4187;DHT22;2107;52.306;10.484;2023-03-07T14:17:06;3.00;99.90
4187;DHT22;2107;52.306;10.484;2023-03-07T14:19:51;3.00;99.90
4187;DHT22;2107;52.306;10.484;2023-03-07T14:22:33;3.00;99.90
4187;DHT22;2107;52.306;10.484;2023-03-07T14:25:14;3.20;99.90
4187;DHT22;2107;52.306;10.484;2023-03-07T14:27:55;3.40;99.90
4187;DHT22;2107;52.306;10.484;2023-03-07T14:30:24;3.20;99.90
4187;DHT22;2107;52.306;10.484;2023-03-07T14:32:51;3.00;99.90
4187;DHT22;2107;52.306;10.484;2023-03-07T14:35:36;3.30;99.90
4187;DHT22;2107;52.306;10.484;2023-03-07T14:38:06;3.40;99.90
4187;DHT22;2107;52.306;10.484;2023-03-07T14:40:41;3.50;99.90
4187;DHT22;2107;52.306;10.484;2023-03-07T14:43:31;3.50;99.90
4187;DHT22;2107;52.306;10.484;2023-03-07T14:46:10;3.20;99.90
4187;DHT22;2107;52.306;10.484;2023-03-07T14:48:56;3.00;99.90
4187;DHT22;2107;52.306;10.484;2023-03-07T14:51:27;3.00;99.90
4187;DHT22;2107;52.306;10.484;2023-03-07T14:53:56;2.90;99.90
4187;DHT22;2107;52.306;10.484;2023-03-07T14:56:26;2.80;99.90
4187;DHT22;2107;52.306;10.484;2023-03-07T14:58:56;2.50;99.90
4187;DHT22;2107;52.306;10.484;2023-03-07T15:01:29;2.80;99.90
4187;DHT22;2107;52.306;10.484;2023-03-07T15:03:57;2.90;99.90
4187;DHT22;2107;52.306;10.484;2023-03-07T15:06:25;3.00;99.90
4187;DHT22;2107;52.306;10.484;2023-03-07T15:08:55;3.10;99.90
4187;DHT22;2107;52.306;10.484;2023-03-07T15:11:29;3.10;99.90
4187;DHT22;2107;52.306;10.484;2023-03-07T15:13:59;3.00;99.90
4187;DHT22;2107;52.306;10.484;2023-03-07T15:16:29;3.10;99.90
4187;DHT22;2107;52.306;10.484;2023-03-07T15:19:01;3.10;99.90
4187;DHT22;2107;52.306;10.484;2023-03-07T15:21:34;3.10;99.90
4187;DHT22;2107;52.306;10.484;2023-03-07T15:24:02;3.10;99.90
4187;DHT22;2107;52.306;10.484;2023-03-07T15:26:31;2.90;99.90
4187;DHT22;2107;52.306;10.484;2023-03-07T15:29:00;2.80;99.90
4187;DHT22;2107;52.306;10.484;2023-03-07T15:31:31;2.90;99.90
4187;DHT22;2107;52.306;10.484;2023-03-07T15:34:22;2.60;99.90
4187;DHT22;2107;52.306;10.484;2023-03-07T15:36:50;2.60;99.90
4187;DHT22;2107;52.306;10.484;2023-03-07T15:39:27;2.60;99.90
4187;DHT22;2107;52.306;10.484;2023-03-07T15:42:00;2.00;99.90
4187;DHT22;2107;52.306;10.484;2023-03-07T15:44:28;1.90;99.90
4187;DHT22;2107;52.306;10.484;2023-03-07T15:46:57;2.20;99.90
4187;DHT22;2107;52.306;10.484;2023-03-07T15:49:32;2.10;99.90
4187;DHT22;2107;52.306;10.484;2023-03-07T15:52:02;2.00;99.90
4187;DHT22;2107;52.306;10.484;2023-03-07T15:54:33;2.00;99.90
4187;DHT22;2107;52.306;10.484;2023-03-07T15:57:04;2.00;99.90
4187;DHT22;2107;52.306;10.484;2023-03-07T15:59:34;2.20;99.90
4187;DHT22;2107;52.306;10.484;2023-03-07T16:02:29;2.10;99.90
4187;DHT22;2107;52.306;10.484;2023-03-07T16:05:01;2.20;99.90
4187;DHT22;2107;52.306;10.484;2023-03-07T16:07:28;2.30;99.90
4187;DHT22;2107;52.306;10.484;2023-03-07T16:09:55;2.40;99.90
4187;DHT22;2107;52.306;10.484;2023-03-07T16:12:24;2.40;99.90
4187;DHT22;2107;52.306;10.484;2023-03-07T16:14:52;2.40;99.90
4187;DHT22;2107;52.306;10.484;2023-03-07T16:17:24;2.70;99.90
4187;DHT22;2107;52.306;10.484;2023-03-07T16:19:52;2.60;99.90
4187;DHT22;2107;52.306;10.484;2023-03-07T16:22:20;2.50;99.90
4187;DHT22;2107;52.306;10.484;2023-03-07T16:24:47;2.50;99.90
4187;DHT22;2107;52.306;10.484;2023-03-07T16:27:15;2.50;99.90
4187;DHT22;2107;52.306;10.484;2023-03-07T16:29:44;2.60;99.90
4187;DHT22;2107;52.306;10.484;2023-03-07T16:32:13;2.50;99.90
4187;DHT22;2107;52.306;10.484;2023-03-07T16:34:40;2.50;99.90
4187;DHT22;2107;52.306;10.484;2023-03-07T16:37:07;2.60;99.90